sensor_id;sensor_type;location;lat;lon;timestamp;P1;durP1;ratioP1;P2;durP2;ratioP2
42066;SDS011;27734;47.028;28.820;2024-03-29T00:00:29;45.20;;;16.50;;
42066;SDS011;27734;47.028;28.820;2024-03-29T00:03:19;38.57;;;15.00;;
42066;SDS011;27734;47.028;28.820;2024-03-29T00:05:49;46.05;;;16.75;;
42066;SDS011;27734;47.028;28.820;2024-03-29T00:08:20;28.97;;;11.53;;
42066;SDS011;27734;47.028;28.820;2024-03-29T00:10:50;31.27;;;12.27;;
42066;SDS011;27734;47.028;28.820;2024-03-29T00:13:20;32.10;;;13.67;;
42066;SDS011;27734;47.028;28.820;2024-03-29T00:15:51;31.57;;;12.23;;
42066;SDS011;27734;47.028;28.820;2024-03-29T00:18:21;30.63;;;11.63;;
42066;SDS011;27734;47.028;28.820;2024-03-29T00:20:51;28.63;;;10.50;;
42066;SDS011;27734;47.028;28.820;2024-03-29T00:23:22;25.80;;;10.40;;
42066;SDS011;27734;47.028;28.820;2024-03-29T00:25:52;24.85;;;10.75;;
42066;SDS011;27734;47.028;28.820;2024-03-29T00:28:23;23.93;;;9.63;;
42066;SDS011;27734;47.028;28.820;2024-03-29T00:30:53;27.50;;;10.83;;
42066;SDS011;27734;47.028;28.820;2024-03-29T00:33:23;26.00;;;10.33;;
42066;SDS011;27734;47.028;28.820;2024-03-29T00:35:54;26.40;;;10.07;;
42066;SDS011;27734;47.028;28.820;2024-03-29T00:38:24;26.80;;;9.97;;
42066;SDS011;27734;47.028;28.820;2024-03-29T00:40:55;26.13;;;10.30;;
42066;SDS011;27734;47.028;28.820;2024-03-29T00:43:26;24.43;;;9.60;;
42066;SDS011;27734;47.028;28.820;2024-03-29T00:45:56;27.17;;;11.20;;
42066;SDS011;27734;47.028;28.820;2024-03-29T00:48:26;26.63;;;11.83;;
42066;SDS011;27734;47.028;28.820;2024-03-29T00:50:57;30.30;;;12.20;;
42066;SDS011;27734;47.028;28.820;2024-03-29T00:53:27;25.50;;;11.37;;
42066;SDS011;27734;47.028;28.820;2024-03-29T00:55:57;26.23;;;10.27;;
42066;SDS011;27734;47.028;28.820;2024-03-29T00:58:27;27.77;;;10.13;;
42066;SDS011;27734;47.028;28.820;2024-03-29T01:00:58;25.70;;;11.10;;
42066;SDS011;27734;47.028;28.820;2024-03-29T01:03:28;26.53;;;11.70;;
42066;SDS011;27734;47.028;28.820;2024-03-29T01:05:58;26.73;;;10.83;;
42066;SDS011;27734;47.028;28.820;2024-03-29T01:08:29;23.80;;;9.45;;
42066;SDS011;27734;47.028;28.820;2024-03-29T01:10:59;21.03;;;8.33;;
42066;SDS011;27734;47.028;28.820;2024-03-29T01:13:30;22.50;;;8.35;;
42066;SDS011;27734;47.028;28.820;2024-03-29T01:16:00;21.27;;;7.97;;
42066;SDS011;27734;47.028;28.820;2024-03-29T01:18:30;19.60;;;7.35;;
42066;SDS011;27734;47.028;28.820;2024-03-29T01:21:01;16.37;;;6.97;;
42066;SDS011;27734;47.028;28.820;2024-03-29T01:23:31;20.43;;;7.13;;
42066;SDS011;27734;47.028;28.820;2024-03-29T01:26:02;16.53;;;6.80;;
42066;SDS011;27734;47.028;28.820;2024-03-29T01:28:33;19.23;;;7.37;;
42066;SDS011;27734;47.028;28.820;2024-03-29T01:31:04;18.80;;;7.33;;
42066;SDS011;27734;47.028;28.820;2024-03-29T01:33:34;20.43;;;7.90;;
42066;SDS011;27734;47.028;28.820;2024-03-29T01:36:05;22.67;;;8.23;;
42066;SDS011;27734;47.028;28.820;2024-03-29T01:38:36;21.20;;;8.35;;
42066;SDS011;27734;47.028;28.820;2024-03-29T01:41:06;19.80;;;7.20;;
42066;SDS011;27734;47.028;28.820;2024-03-29T01:43:36;20.50;;;7.67;;
42066;SDS011;27734;47.028;28.820;2024-03-29T01:46:08;20.30;;;7.20;;
42066;SDS011;27734;47.028;28.820;2024-03-29T01:48:39;15.93;;;6.70;;
42066;SDS011;27734;47.028;28.820;2024-03-29T01:51:10;18.73;;;7.07;;
42066;SDS011;27734;47.028;28.820;2024-03-29T01:53:43;20.00;;;7.90;;
42066;SDS011;27734;47.028;28.820;2024-03-29T01:56:16;20.80;;;7.62;;
42066;SDS011;27734;47.028;28.820;2024-03-29T01:58:49;19.17;;;7.60;;
42066;SDS011;27734;47.028;28.820;2024-03-29T02:01:24;19.60;;;7.30;;
42066;SDS011;27734;47.028;28.820;2024-03-29T02:03:57;19.35;;;7.12;;
42066;SDS011;27734;47.028;28.820;2024-03-29T02:06:29;19.33;;;7.43;;
42066;SDS011;27734;47.028;28.820;2024-03-29T02:09:01;17.43;;;6.57;;
42066;SDS011;27734;47.028;28.820;2024-03-29T02:11:33;18.03;;;5.87;;
42066;SDS011;27734;47.028;28.820;2024-03-29T02:14:06;17.90;;;6.20;;
42066;SDS011;27734;47.028;28.820;2024-03-29T02:16:37;17.63;;;6.67;;
42066;SDS011;27734;47.028;28.820;2024-03-29T02:19:10;21.50;;;6.90;;
42066;SDS011;27734;47.028;28.820;2024-03-29T02:21:42;19.30;;;7.05;;
42066;SDS011;27734;47.028;28.820;2024-03-29T02:24:17;19.20;;;6.90;;
42066;SDS011;27734;47.028;28.820;2024-03-29T02:26:48;17.73;;;6.30;;
42066;SDS011;27734;47.028;28.820;2024-03-29T02:29:20;18.97;;;7.13;;
42066;SDS011;27734;47.028;28.820;2024-03-29T02:31:52;17.73;;;6.17;;
42066;SDS011;27734;47.028;28.820;2024-03-29T02:34:23;18.73;;;6.83;;
42066;SDS011;27734;47.028;28.820;2024-03-29T02:36:55;17.17;;;6.93;;
42066;SDS011;27734;47.028;28.820;2024-03-29T02:39:27;15.73;;;6.07;;
42066;SDS011;27734;47.028;28.820;2024-03-29T02:41:58;18.03;;;6.00;;
42066;SDS011;27734;47.028;28.820;2024-03-29T02:44:30;15.30;;;6.03;;
42066;SDS011;27734;47.028;28.820;2024-03-29T02:47:01;17.03;;;6.37;;
42066;SDS011;27734;47.028;28.820;2024-03-29T02:49:33;17.80;;;6.40;;
42066;SDS011;27734;47.028;28.820;2024-03-29T02:52:05;21.53;;;6.60;;
42066;SDS011;27734;47.028;28.820;2024-03-29T02:54:36;18.35;;;6.30;;
42066;SDS011;27734;47.028;28.820;2024-03-29T02:57:09;17.70;;;5.93;;
42066;SDS011;27734;47.028;28.820;2024-03-29T02:59:40;16.43;;;6.03;;
42066;SDS011;27734;47.028;28.820;2024-03-29T03:02:12;16.80;;;6.00;;
42066;SDS011;27734;47.028;28.820;2024-03-29T03:04:43;18.97;;;6.03;;
42066;SDS011;27734;47.028;28.820;2024-03-29T03:07:15;16.30;;;5.50;;
42066;SDS011;27734;47.028;28.820;2024-03-29T03:10:05;15.13;;;5.43;;
42066;SDS011;27734;47.028;28.820;2024-03-29T03:12:54;14.25;;;5.05;;
42066;SDS011;27734;47.028;28.820;2024-03-29T03:15:25;15.20;;;5.10;;
42066;SDS011;27734;47.028;28.820;2024-03-29T03:17:57;17.17;;;5.63;;
42066;SDS011;27734;47.028;28.820;2024-03-29T03:20:28;14.43;;;5.70;;
42066;SDS011;27734;47.028;28.820;2024-03-29T03:23:01;17.20;;;6.00;;
42066;SDS011;27734;47.028;28.820;2024-03-29T03:25:32;14.37;;;5.70;;
42066;SDS011;27734;47.028;28.820;2024-03-29T03:28:03;17.80;;;5.90;;
42066;SDS011;27734;47.028;28.820;2024-03-29T03:30:38;15.23;;;5.60;;
42066;SDS011;27734;47.028;28.820;2024-03-29T03:33:10;15.60;;;5.47;;
42066;SDS011;27734;47.028;28.820;2024-03-29T03:35:41;15.93;;;5.70;;
42066;SDS011;27734;47.028;28.820;2024-03-29T03:38:13;16.10;;;6.20;;
42066;SDS011;27734;47.028;28.820;2024-03-29T03:40:45;16.83;;;5.60;;
42066;SDS011;27734;47.028;28.820;2024-03-29T03:43:17;16.37;;;5.53;;
42066;SDS011;27734;47.028;28.820;2024-03-29T03:45:48;11.37;;;4.63;;
42066;SDS011;27734;47.028;28.820;2024-03-29T03:48:21;16.60;;;5.47;;
42066;SDS011;27734;47.028;28.820;2024-03-29T03:50:52;16.70;;;5.33;;
42066;SDS011;27734;47.028;28.820;2024-03-29T03:53:24;18.00;;;5.43;;
42066;SDS011;27734;47.028;28.820;2024-03-29T03:55:55;13.63;;;5.00;;
42066;SDS011;27734;47.028;28.820;2024-03-29T03:58:26;15.97;;;5.40;;
42066;SDS011;27734;47.028;28.820;2024-03-29T04:00:58;21.73;;;5.60;;
42066;SDS011;27734;47.028;28.820;2024-03-29T04:03:35;20.47;;;5.80;;
42066;SDS011;27734;47.028;28.820;2024-03-29T04:06:07;16.27;;;6.00;;
42066;SDS011;27734;47.028;28.820;2024-03-29T04:08:41;20.17;;;5.60;;
42066;SDS011;27734;47.028;28.820;2024-03-29T04:11:15;18.60;;;5.75;;
42066;SDS011;27734;47.028;28.820;2024-03-29T04:13:46;21.63;;;5.67;;
42066;SDS011;27734;47.028;28.820;2024-03-29T04:16:17;21.10;;;5.77;;
42066;SDS011;27734;47.028;28.820;2024-03-29T04:18:49;18.40;;;6.35;;
42066;SDS011;27734;47.028;28.820;2024-03-29T04:21:20;19.97;;;7.40;;
42066;SDS011;27734;47.028;28.820;2024-03-29T04:23:51;21.45;;;7.00;;
42066;SDS011;27734;47.028;28.820;2024-03-29T04:26:23;22.23;;;7.53;;
42066;SDS011;27734;47.028;28.820;2024-03-29T04:28:54;26.80;;;7.50;;
42066;SDS011;27734;47.028;28.820;2024-03-29T04:31:25;23.13;;;6.80;;
42066;SDS011;27734;47.028;28.820;2024-03-29T04:33:57;20.53;;;7.77;;
42066;SDS011;27734;47.028;28.820;2024-03-29T04:36:28;20.83;;;7.37;;
42066;SDS011;27734;47.028;28.820;2024-03-29T04:38:59;22.33;;;6.83;;
42066;SDS011;27734;47.028;28.820;2024-03-29T04:41:31;20.27;;;7.07;;
42066;SDS011;27734;47.028;28.820;2024-03-29T04:44:03;22.80;;;6.30;;
42066;SDS011;27734;47.028;28.820;2024-03-29T04:46:36;21.10;;;6.47;;
42066;SDS011;27734;47.028;28.820;2024-03-29T04:49:10;21.20;;;7.27;;
42066;SDS011;27734;47.028;28.820;2024-03-29T04:51:42;20.53;;;7.00;;
42066;SDS011;27734;47.028;28.820;2024-03-29T04:54:13;24.80;;;7.03;;
42066;SDS011;27734;47.028;28.820;2024-03-29T04:56:45;20.20;;;6.47;;
42066;SDS011;27734;47.028;28.820;2024-03-29T04:59:16;21.20;;;6.33;;
42066;SDS011;27734;47.028;28.820;2024-03-29T05:01:49;21.97;;;6.23;;
42066;SDS011;27734;47.028;28.820;2024-03-29T05:04:21;17.70;;;6.50;;
42066;SDS011;27734;47.028;28.820;2024-03-29T05:06:56;22.43;;;6.30;;
42066;SDS011;27734;47.028;28.820;2024-03-29T05:09:28;21.33;;;5.93;;
42066;SDS011;27734;47.028;28.820;2024-03-29T05:12:00;19.20;;;6.17;;
42066;SDS011;27734;47.028;28.820;2024-03-29T05:14:32;23.63;;;6.70;;
42066;SDS011;27734;47.028;28.820;2024-03-29T05:17:03;19.67;;;6.93;;
42066;SDS011;27734;47.028;28.820;2024-03-29T05:19:34;21.57;;;6.60;;
42066;SDS011;27734;47.028;28.820;2024-03-29T05:22:06;23.53;;;6.50;;
42066;SDS011;27734;47.028;28.820;2024-03-29T05:24:37;19.13;;;6.07;;
42066;SDS011;27734;47.028;28.820;2024-03-29T05:27:08;27.87;;;6.60;;
42066;SDS011;27734;47.028;28.820;2024-03-29T05:29:40;23.00;;;6.67;;
42066;SDS011;27734;47.028;28.820;2024-03-29T05:32:12;24.23;;;6.50;;
42066;SDS011;27734;47.028;28.820;2024-03-29T05:34:45;27.87;;;7.10;;
42066;SDS011;27734;47.028;28.820;2024-03-29T05:37:16;19.53;;;6.43;;
42066;SDS011;27734;47.028;28.820;2024-03-29T05:39:47;15.13;;;5.00;;
42066;SDS011;27734;47.028;28.820;2024-03-29T05:42:27;14.00;;;3.93;;
42066;SDS011;27734;47.028;28.820;2024-03-29T05:44:59;12.53;;;3.60;;
42066;SDS011;27734;47.028;28.820;2024-03-29T05:47:30;14.67;;;4.10;;
42066;SDS011;27734;47.028;28.820;2024-03-29T05:50:02;14.03;;;4.70;;
42066;SDS011;27734;47.028;28.820;2024-03-29T05:52:34;15.03;;;4.23;;
42066;SDS011;27734;47.028;28.820;2024-03-29T05:55:06;10.80;;;4.00;;
42066;SDS011;27734;47.028;28.820;2024-03-29T05:57:38;13.80;;;3.97;;
42066;SDS011;27734;47.028;28.820;2024-03-29T06:00:13;14.00;;;4.53;;
42066;SDS011;27734;47.028;28.820;2024-03-29T06:02:45;11.63;;;4.03;;
42066;SDS011;27734;47.028;28.820;2024-03-29T06:05:17;10.97;;;4.30;;
42066;SDS011;27734;47.028;28.820;2024-03-29T06:07:48;12.43;;;4.43;;
42066;SDS011;27734;47.028;28.820;2024-03-29T06:10:20;12.00;;;3.87;;
42066;SDS011;27734;47.028;28.820;2024-03-29T06:12:52;12.93;;;4.77;;
42066;SDS011;27734;47.028;28.820;2024-03-29T06:15:24;14.17;;;4.37;;
42066;SDS011;27734;47.028;28.820;2024-03-29T06:18:12;13.73;;;4.03;;
42066;SDS011;27734;47.028;28.820;2024-03-29T06:20:44;16.17;;;4.73;;
42066;SDS011;27734;47.028;28.820;2024-03-29T06:23:16;13.43;;;5.00;;
42066;SDS011;27734;47.028;28.820;2024-03-29T06:25:48;17.43;;;4.93;;
42066;SDS011;27734;47.028;28.820;2024-03-29T06:28:19;12.73;;;4.50;;
42066;SDS011;27734;47.028;28.820;2024-03-29T06:30:51;12.87;;;4.70;;
42066;SDS011;27734;47.028;28.820;2024-03-29T06:33:25;13.73;;;5.07;;
42066;SDS011;27734;47.028;28.820;2024-03-29T06:35:57;12.90;;;4.83;;
42066;SDS011;27734;47.028;28.820;2024-03-29T06:38:29;17.63;;;5.67;;
42066;SDS011;27734;47.028;28.820;2024-03-29T06:41:00;12.23;;;4.40;;
42066;SDS011;27734;47.028;28.820;2024-03-29T06:43:32;15.40;;;5.30;;
42066;SDS011;27734;47.028;28.820;2024-03-29T06:46:03;10.37;;;4.17;;
42066;SDS011;27734;47.028;28.820;2024-03-29T06:48:35;13.83;;;4.53;;
42066;SDS011;27734;47.028;28.820;2024-03-29T06:51:07;11.43;;;3.70;;
42066;SDS011;27734;47.028;28.820;2024-03-29T06:53:39;12.87;;;4.07;;
42066;SDS011;27734;47.028;28.820;2024-03-29T06:56:11;7.93;;;3.50;;
42066;SDS011;27734;47.028;28.820;2024-03-29T06:58:44;12.80;;;3.77;;
42066;SDS011;27734;47.028;28.820;2024-03-29T07:01:15;11.70;;;3.83;;
42066;SDS011;27734;47.028;28.820;2024-03-29T07:03:48;10.53;;;3.77;;
42066;SDS011;27734;47.028;28.820;2024-03-29T07:06:21;12.80;;;3.63;;
42066;SDS011;27734;47.028;28.820;2024-03-29T07:08:53;8.88;;;3.30;;
42066;SDS011;27734;47.028;28.820;2024-03-29T07:11:32;12.87;;;3.90;;
42066;SDS011;27734;47.028;28.820;2024-03-29T07:14:07;10.07;;;3.50;;
42066;SDS011;27734;47.028;28.820;2024-03-29T07:16:42;14.50;;;3.50;;
42066;SDS011;27734;47.028;28.820;2024-03-29T07:19:14;12.13;;;3.80;;
42066;SDS011;27734;47.028;28.820;2024-03-29T07:21:47;9.23;;;3.90;;
42066;SDS011;27734;47.028;28.820;2024-03-29T07:24:20;13.13;;;3.53;;
42066;SDS011;27734;47.028;28.820;2024-03-29T07:26:53;9.50;;;3.73;;
42066;SDS011;27734;47.028;28.820;2024-03-29T07:29:24;7.97;;;3.20;;
42066;SDS011;27734;47.028;28.820;2024-03-29T07:32:02;13.60;;;3.60;;
42066;SDS011;27734;47.028;28.820;2024-03-29T07:34:34;10.73;;;3.50;;
42066;SDS011;27734;47.028;28.820;2024-03-29T07:37:07;11.53;;;3.70;;
42066;SDS011;27734;47.028;28.820;2024-03-29T07:39:43;13.50;;;3.60;;
42066;SDS011;27734;47.028;28.820;2024-03-29T07:42:15;16.77;;;3.60;;
42066;SDS011;27734;47.028;28.820;2024-03-29T07:44:47;11.93;;;3.90;;
42066;SDS011;27734;47.028;28.820;2024-03-29T07:47:23;9.17;;;3.37;;
42066;SDS011;27734;47.028;28.820;2024-03-29T07:49:58;11.63;;;3.60;;
42066;SDS011;27734;47.028;28.820;2024-03-29T07:52:30;12.03;;;3.70;;
42066;SDS011;27734;47.028;28.820;2024-03-29T07:55:04;16.50;;;3.60;;
42066;SDS011;27734;47.028;28.820;2024-03-29T07:57:39;20.90;;;3.03;;
42066;SDS011;27734;47.028;28.820;2024-03-29T08:00:11;18.87;;;2.83;;
42066;SDS011;27734;47.028;28.820;2024-03-29T08:02:50;9.67;;;3.03;;
42066;SDS011;27734;47.028;28.820;2024-03-29T08:05:30;12.33;;;2.90;;
42066;SDS011;27734;47.028;28.820;2024-03-29T08:08:06;12.70;;;2.87;;
42066;SDS011;27734;47.028;28.820;2024-03-29T08:13:08;13.25;;;2.60;;
42066;SDS011;27734;47.028;28.820;2024-03-29T08:15:46;11.03;;;2.63;;
42066;SDS011;27734;47.028;28.820;2024-03-29T08:18:20;11.23;;;2.23;;
42066;SDS011;27734;47.028;28.820;2024-03-29T08:20:51;8.40;;;2.87;;
42066;SDS011;27734;47.028;28.820;2024-03-29T08:23:23;10.20;;;2.60;;
42066;SDS011;27734;47.028;28.820;2024-03-29T08:25:55;11.83;;;3.53;;
42066;SDS011;27734;47.028;28.820;2024-03-29T08:28:27;13.60;;;2.60;;
42066;SDS011;27734;47.028;28.820;2024-03-29T08:30:59;7.70;;;2.50;;
42066;SDS011;27734;47.028;28.820;2024-03-29T08:33:34;10.83;;;3.07;;
42066;SDS011;27734;47.028;28.820;2024-03-29T08:36:07;11.67;;;3.07;;
42066;SDS011;27734;47.028;28.820;2024-03-29T08:38:39;9.43;;;2.77;;
42066;SDS011;27734;47.028;28.820;2024-03-29T08:41:15;7.20;;;2.55;;
42066;SDS011;27734;47.028;28.820;2024-03-29T08:43:48;9.33;;;3.20;;
42066;SDS011;27734;47.028;28.820;2024-03-29T08:46:25;8.80;;;2.23;;
42066;SDS011;27734;47.028;28.820;2024-03-29T08:49:01;9.90;;;2.03;;
42066;SDS011;27734;47.028;28.820;2024-03-29T08:51:33;13.65;;;2.75;;
42066;SDS011;27734;47.028;28.820;2024-03-29T08:54:05;24.20;;;2.70;;
42066;SDS011;27734;47.028;28.820;2024-03-29T08:56:36;18.50;;;2.13;;
42066;SDS011;27734;47.028;28.820;2024-03-29T08:59:09;17.50;;;2.07;;
42066;SDS011;27734;47.028;28.820;2024-03-29T09:01:44;7.37;;;1.50;;
42066;SDS011;27734;47.028;28.820;2024-03-29T09:04:18;5.47;;;1.27;;
42066;SDS011;27734;47.028;28.820;2024-03-29T09:06:50;3.17;;;0.87;;
42066;SDS011;27734;47.028;28.820;2024-03-29T09:09:25;3.47;;;1.00;;
42066;SDS011;27734;47.028;28.820;2024-03-29T09:11:58;7.85;;;1.10;;
42066;SDS011;27734;47.028;28.820;2024-03-29T09:14:31;10.80;;;2.80;;
42066;SDS011;27734;47.028;28.820;2024-03-29T09:17:19;5.53;;;1.03;;
42066;SDS011;27734;47.028;28.820;2024-03-29T09:19:54;8.80;;;1.50;;
42066;SDS011;27734;47.028;28.820;2024-03-29T09:22:36;2.50;;;0.90;;
42066;SDS011;27734;47.028;28.820;2024-03-29T09:25:18;7.07;;;1.40;;
42066;SDS011;27734;47.028;28.820;2024-03-29T09:28:38;4.67;;;1.10;;
42066;SDS011;27734;47.028;28.820;2024-03-29T09:31:12;10.30;;;1.90;;
42066;SDS011;27734;47.028;28.820;2024-03-29T09:36:22;3.75;;;1.05;;
42066;SDS011;27734;47.028;28.820;2024-03-29T09:38:54;5.87;;;1.12;;
42066;SDS011;27734;47.028;28.820;2024-03-29T09:41:29;6.85;;;1.45;;
42066;SDS011;27734;47.028;28.820;2024-03-29T09:44:05;5.87;;;1.10;;
42066;SDS011;27734;47.028;28.820;2024-03-29T09:46:39;10.23;;;1.20;;
42066;SDS011;27734;47.028;28.820;2024-03-29T09:49:17;7.33;;;1.40;;
42066;SDS011;27734;47.028;28.820;2024-03-29T09:51:50;4.17;;;1.00;;
42066;SDS011;27734;47.028;28.820;2024-03-29T09:54:23;5.13;;;1.07;;
42066;SDS011;27734;47.028;28.820;2024-03-29T09:56:55;8.70;;;1.03;;
42066;SDS011;27734;47.028;28.820;2024-03-29T09:59:27;2.33;;;0.87;;
42066;SDS011;27734;47.028;28.820;2024-03-29T10:02:00;4.53;;;0.77;;
42066;SDS011;27734;47.028;28.820;2024-03-29T10:04:41;7.07;;;1.30;;
42066;SDS011;27734;47.028;28.820;2024-03-29T10:07:17;4.20;;;1.27;;
42066;SDS011;27734;47.028;28.820;2024-03-29T10:09:55;3.05;;;1.00;;
42066;SDS011;27734;47.028;28.820;2024-03-29T10:12:31;3.77;;;0.87;;
42066;SDS011;27734;47.028;28.820;2024-03-29T10:15:03;6.30;;;1.13;;
42066;SDS011;27734;47.028;28.820;2024-03-29T10:17:46;5.87;;;1.30;;
42066;SDS011;27734;47.028;28.820;2024-03-29T10:20:19;2.87;;;0.97;;
42066;SDS011;27734;47.028;28.820;2024-03-29T10:22:51;10.90;;;1.27;;
42066;SDS011;27734;47.028;28.820;2024-03-29T10:25:24;5.67;;;0.97;;
42066;SDS011;27734;47.028;28.820;2024-03-29T10:28:01;8.50;;;1.50;;
42066;SDS011;27734;47.028;28.820;2024-03-29T10:30:33;4.30;;;0.83;;
42066;SDS011;27734;47.028;28.820;2024-03-29T10:33:07;0.87;;;0.87;;
42066;SDS011;27734;47.028;28.820;2024-03-29T10:35:39;3.70;;;1.57;;
42066;SDS011;27734;47.028;28.820;2024-03-29T10:38:13;5.00;;;1.10;;
42066;SDS011;27734;47.028;28.820;2024-03-29T10:40:45;2.57;;;1.00;;
42066;SDS011;27734;47.028;28.820;2024-03-29T10:43:18;2.85;;;1.17;;
42066;SDS011;27734;47.028;28.820;2024-03-29T10:45:50;1.33;;;1.00;;
42066;SDS011;27734;47.028;28.820;2024-03-29T10:48:27;1.20;;;1.07;;
42066;SDS011;27734;47.028;28.820;2024-03-29T10:51:00;0.90;;;0.90;;
42066;SDS011;27734;47.028;28.820;2024-03-29T10:53:35;1.40;;;1.00;;
42066;SDS011;27734;47.028;28.820;2024-03-29T10:56:09;7.00;;;1.13;;
42066;SDS011;27734;47.028;28.820;2024-03-29T10:58:44;4.10;;;0.67;;
42066;SDS011;27734;47.028;28.820;2024-03-29T11:01:25;7.17;;;0.90;;
42066;SDS011;27734;47.028;28.820;2024-03-29T11:04:05;1.47;;;0.80;;
42066;SDS011;27734;47.028;28.820;2024-03-29T11:06:42;4.70;;;1.00;;
42066;SDS011;27734;47.028;28.820;2024-03-29T11:09:16;1.27;;;0.70;;
42066;SDS011;27734;47.028;28.820;2024-03-29T11:11:54;2.83;;;0.80;;
42066;SDS011;27734;47.028;28.820;2024-03-29T11:14:31;3.17;;;1.20;;
42066;SDS011;27734;47.028;28.820;2024-03-29T11:17:09;3.47;;;0.97;;
42066;SDS011;27734;47.028;28.820;2024-03-29T11:19:42;1.93;;;0.90;;
42066;SDS011;27734;47.028;28.820;2024-03-29T11:22:15;4.23;;;1.27;;
42066;SDS011;27734;47.028;28.820;2024-03-29T11:24:53;2.43;;;1.17;;
42066;SDS011;27734;47.028;28.820;2024-03-29T11:27:26;5.70;;;1.07;;
42066;SDS011;27734;47.028;28.820;2024-03-29T11:30:00;3.77;;;0.90;;
42066;SDS011;27734;47.028;28.820;2024-03-29T11:32:38;2.60;;;0.97;;
42066;SDS011;27734;47.028;28.820;2024-03-29T11:35:14;1.53;;;1.00;;
42066;SDS011;27734;47.028;28.820;2024-03-29T11:37:57;1.77;;;1.00;;
42066;SDS011;27734;47.028;28.820;2024-03-29T11:40:33;3.47;;;0.80;;
42066;SDS011;27734;47.028;28.820;2024-03-29T11:47:15;2.80;;;1.20;;
42066;SDS011;27734;47.028;28.820;2024-03-29T11:49:56;0.80;;;0.80;;
42066;SDS011;27734;47.028;28.820;2024-03-29T11:52:33;3.10;;;1.33;;
42066;SDS011;27734;47.028;28.820;2024-03-29T11:55:09;2.87;;;1.00;;
42066;SDS011;27734;47.028;28.820;2024-03-29T11:57:43;1.10;;;0.90;;
42066;SDS011;27734;47.028;28.820;2024-03-29T12:00:20;5.33;;;1.17;;
42066;SDS011;27734;47.028;28.820;2024-03-29T12:02:58;3.30;;;1.00;;
42066;SDS011;27734;47.028;28.820;2024-03-29T12:05:35;3.40;;;0.90;;
42066;SDS011;27734;47.028;28.820;2024-03-29T12:08:11;2.00;;;1.20;;
42066;SDS011;27734;47.028;28.820;2024-03-29T12:11:14;8.37;;;1.23;;
42066;SDS011;27734;47.028;28.820;2024-03-29T12:13:51;5.10;;;1.43;;
42066;SDS011;27734;47.028;28.820;2024-03-29T12:16:46;5.43;;;1.10;;
42066;SDS011;27734;47.028;28.820;2024-03-29T12:19:25;2.83;;;1.13;;
42066;SDS011;27734;47.028;28.820;2024-03-29T12:21:58;2.55;;;1.40;;
42066;SDS011;27734;47.028;28.820;2024-03-29T12:24:30;6.70;;;1.60;;
42066;SDS011;27734;47.028;28.820;2024-03-29T12:27:07;2.97;;;1.20;;
42066;SDS011;27734;47.028;28.820;2024-03-29T12:29:48;2.37;;;1.40;;
42066;SDS011;27734;47.028;28.820;2024-03-29T12:32:24;2.23;;;1.50;;
42066;SDS011;27734;47.028;28.820;2024-03-29T12:35:07;4.03;;;1.60;;
42066;SDS011;27734;47.028;28.820;2024-03-29T12:37:52;4.08;;;1.40;;
42066;SDS011;27734;47.028;28.820;2024-03-29T12:40:27;3.57;;;1.60;;
42066;SDS011;27734;47.028;28.820;2024-03-29T12:43:07;1.87;;;1.40;;
42066;SDS011;27734;47.028;28.820;2024-03-29T12:45:51;1.73;;;1.30;;
42066;SDS011;27734;47.028;28.820;2024-03-29T12:48:27;6.60;;;1.90;;
42066;SDS011;27734;47.028;28.820;2024-03-29T12:51:02;1.77;;;1.47;;
42066;SDS011;27734;47.028;28.820;2024-03-29T12:53:33;3.80;;;1.70;;
42066;SDS011;27734;47.028;28.820;2024-03-29T12:56:09;2.13;;;1.40;;
42066;SDS011;27734;47.028;28.820;2024-03-29T12:58:50;2.77;;;1.43;;
42066;SDS011;27734;47.028;28.820;2024-03-29T13:01:21;1.70;;;1.13;;
42066;SDS011;27734;47.028;28.820;2024-03-29T13:03:59;2.30;;;1.20;;
42066;SDS011;27734;47.028;28.820;2024-03-29T13:06:34;3.25;;;1.15;;
42066;SDS011;27734;47.028;28.820;2024-03-29T13:09:09;2.10;;;1.10;;
42066;SDS011;27734;47.028;28.820;2024-03-29T13:14:15;1.43;;;1.33;;
42066;SDS011;27734;47.028;28.820;2024-03-29T13:16:50;3.30;;;1.40;;
42066;SDS011;27734;47.028;28.820;2024-03-29T13:19:22;3.22;;;1.35;;
42066;SDS011;27734;47.028;28.820;2024-03-29T13:21:57;3.03;;;1.60;;
42066;SDS011;27734;47.028;28.820;2024-03-29T13:24:33;1.30;;;1.20;;
42066;SDS011;27734;47.028;28.820;2024-03-29T13:27:06;2.87;;;1.10;;
42066;SDS011;27734;47.028;28.820;2024-03-29T13:29:39;3.30;;;1.37;;
42066;SDS011;27734;47.028;28.820;2024-03-29T13:32:10;3.77;;;1.10;;
42066;SDS011;27734;47.028;28.820;2024-03-29T13:34:44;7.47;;;1.35;;
42066;SDS011;27734;47.028;28.820;2024-03-29T13:37:16;1.30;;;1.20;;
42066;SDS011;27734;47.028;28.820;2024-03-29T13:39:54;3.80;;;1.67;;
42066;SDS011;27734;47.028;28.820;2024-03-29T13:42:29;1.70;;;1.20;;
42066;SDS011;27734;47.028;28.820;2024-03-29T13:45:04;3.53;;;1.10;;
42066;SDS011;27734;47.028;28.820;2024-03-29T13:47:39;1.37;;;1.20;;
42066;SDS011;27734;47.028;28.820;2024-03-29T13:50:12;2.87;;;1.70;;
42066;SDS011;27734;47.028;28.820;2024-03-29T13:52:44;2.73;;;1.20;;
42066;SDS011;27734;47.028;28.820;2024-03-29T13:55:16;3.63;;;1.50;;
42066;SDS011;27734;47.028;28.820;2024-03-29T13:57:48;4.40;;;1.50;;
42066;SDS011;27734;47.028;28.820;2024-03-29T14:00:19;1.77;;;1.50;;
42066;SDS011;27734;47.028;28.820;2024-03-29T14:02:52;2.63;;;1.70;;
42066;SDS011;27734;47.028;28.820;2024-03-29T14:05:25;6.72;;;1.67;;
42066;SDS011;27734;47.028;28.820;2024-03-29T14:07:57;3.47;;;1.77;;
42066;SDS011;27734;47.028;28.820;2024-03-29T14:10:35;5.17;;;2.03;;
42066;SDS011;27734;47.028;28.820;2024-03-29T14:13:07;3.27;;;2.07;;
42066;SDS011;27734;47.028;28.820;2024-03-29T14:15:42;4.57;;;2.40;;
42066;SDS011;27734;47.028;28.820;2024-03-29T14:18:19;5.15;;;2.30;;
42066;SDS011;27734;47.028;28.820;2024-03-29T14:20:52;4.83;;;2.23;;
42066;SDS011;27734;47.028;28.820;2024-03-29T14:23:26;4.40;;;1.67;;
42066;SDS011;27734;47.028;28.820;2024-03-29T14:25:57;1.97;;;1.30;;
42066;SDS011;27734;47.028;28.820;2024-03-29T14:28:29;2.80;;;1.57;;
42066;SDS011;27734;47.028;28.820;2024-03-29T14:31:01;2.33;;;1.50;;
42066;SDS011;27734;47.028;28.820;2024-03-29T14:33:33;4.50;;;1.37;;
42066;SDS011;27734;47.028;28.820;2024-03-29T14:36:05;3.63;;;1.50;;
42066;SDS011;27734;47.028;28.820;2024-03-29T14:38:37;1.97;;;1.60;;
42066;SDS011;27734;47.028;28.820;2024-03-29T14:41:09;1.70;;;1.33;;
42066;SDS011;27734;47.028;28.820;2024-03-29T14:43:41;4.10;;;1.60;;
42066;SDS011;27734;47.028;28.820;2024-03-29T14:46:14;3.93;;;1.37;;
42066;SDS011;27734;47.028;28.820;2024-03-29T14:48:46;3.20;;;1.40;;
42066;SDS011;27734;47.028;28.820;2024-03-29T14:51:17;2.80;;;1.70;;
42066;SDS011;27734;47.028;28.820;2024-03-29T14:53:49;3.47;;;1.33;;
42066;SDS011;27734;47.028;28.820;2024-03-29T14:56:21;1.67;;;1.33;;
42066;SDS011;27734;47.028;28.820;2024-03-29T14:58:53;4.23;;;1.47;;
42066;SDS011;27734;47.028;28.820;2024-03-29T15:01:25;2.47;;;1.20;;
42066;SDS011;27734;47.028;28.820;2024-03-29T15:03:57;2.75;;;1.50;;
42066;SDS011;27734;47.028;28.820;2024-03-29T15:06:28;4.17;;;1.80;;
42066;SDS011;27734;47.028;28.820;2024-03-29T15:09:01;4.63;;;2.00;;
42066;SDS011;27734;47.028;28.820;2024-03-29T15:11:34;4.67;;;1.80;;
42066;SDS011;27734;47.028;28.820;2024-03-29T15:14:07;6.00;;;2.00;;